sensor_id;sensor_type;location;lat;lon;timestamp;pressure;altitude;pressure_sealevel;temperature;humidity
51460;BME280;37534;39.772;2.718;2022-07-22T14:02:27;101353.56;;;34.14;67.83
51460;BME280;37534;39.772;2.718;2022-07-22T14:04:52;101349.03;;;34.15;69.78
51460;BME280;37534;39.772;2.718;2022-07-22T14:07:18;101354.19;;;34.16;72.29
51460;BME280;37534;39.772;2.718;2022-07-22T14:09:43;101356.50;;;34.27;70.71
51460;BME280;37534;39.772;2.718;2022-07-22T14:12:09;101349.56;;;34.18;67.94
51460;BME280;37534;39.772;2.718;2022-07-22T14:14:35;101345.88;;;34.11;69.07
51460;BME280;37534;39.772;2.718;2022-07-22T14:17:06;101342.03;;;34.14;70.15
51460;BME280;37534;39.772;2.718;2022-07-22T14:19:32;101350.22;;;34.12;71.28
51460;BME280;37534;39.772;2.718;2022-07-22T14:21:57;101341.19;;;34.13;70.79
51460;BME280;37534;39.772;2.718;2022-07-22T14:24:23;101347.16;;;34.23;69.50
51460;BME280;37534;39.772;2.718;2022-07-22T14:26:49;101338.09;;;34.24;69.58
51460;BME280;37534;39.772;2.718;2022-07-22T14:29:15;101332.69;;;34.33;70.53
51460;BME280;37534;39.772;2.718;2022-07-22T14:31:40;101329.91;;;34.26;73.05
51460;BME280;37534;39.772;2.718;2022-07-22T14:34:09;101336.44;;;34.23;70.73
51460;BME280;37534;39.772;2.718;2022-07-22T14:36:34;101321.44;;;34.14;72.50
51460;BME280;37534;39.772;2.718;2022-07-22T14:39:00;101325.59;;;34.17;73.98
51460;BME280;37534;39.772;2.718;2022-07-22T14:41:25;101329.78;;;34.19;71.06
51460;BME280;37534;39.772;2.718;2022-07-22T14:43:51;101323.81;;;34.09;72.73
51460;BME280;37534;39.772;2.718;2022-07-22T14:46:17;101313.09;;;34.09;71.97
51460;BME280;37534;39.772;2.718;2022-07-22T14:48:42;101300.44;;;34.03;72.27
51460;BME280;37534;39.772;2.718;2022-07-22T14:51:08;101299.69;;;33.94;71.00
51460;BME280;37534;39.772;2.718;2022-07-22T14:53:34;101300.28;;;34.04;71.76
51460;BME280;37534;39.772;2.718;2022-07-22T14:56:00;101308.31;;;34.04;70.97
51460;BME280;37534;39.772;2.718;2022-07-22T14:58:25;101304.31;;;34.00;70.88
51460;BME280;37534;39.772;2.718;2022-07-22T15:00:51;101304.38;;;33.92;71.19
51460;BME280;37534;39.772;2.718;2022-07-22T15:03:17;101299.56;;;33.87;71.27
51460;BME280;37534;39.772;2.718;2022-07-22T15:05:42;101316.22;;;33.98;70.99
51460;BME280;37534;39.772;2.718;2022-07-22T15:08:08;101309.19;;;33.97;69.77
51460;BME280;37534;39.772;2.718;2022-07-22T15:10:34;101301.84;;;33.99;69.26
51460;BME280;37534;39.772;2.718;2022-07-22T15:12:59;101291.59;;;34.02;68.78
51460;BME280;37534;39.772;2.718;2022-07-22T15:15:25;101306.31;;;34.21;68.70
51460;BME280;37534;39.772;2.718;2022-07-22T15:17:51;101293.22;;;34.26;67.43
51460;BME280;37534;39.772;2.718;2022-07-22T15:20:16;101295.25;;;34.24;67.34
51460;BME280;37534;39.772;2.718;2022-07-22T15:22:42;101287.81;;;34.35;66.20
51460;BME280;37534;39.772;2.718;2022-07-22T15:25:08;101286.88;;;34.57;65.72
51460;BME280;37534;39.772;2.718;2022-07-22T15:27:33;101292.09;;;34.74;64.38
51460;BME280;37534;39.772;2.718;2022-07-22T15:30:07;101295.41;;;34.91;63.45
51460;BME280;37534;39.772;2.718;2022-07-22T15:32:33;101291.81;;;34.98;61.49
51460;BME280;37534;39.772;2.718;2022-07-22T15:34:59;101291.16;;;34.81;63.38
51460;BME280;37534;39.772;2.718;2022-07-22T15:37:24;101285.34;;;34.78;63.98
51460;BME280;37534;39.772;2.718;2022-07-22T15:39:51;101288.47;;;34.66;63.17
51460;BME280;37534;39.772;2.718;2022-07-22T15:42:16;101276.06;;;34.65;62.33
51460;BME280;37534;39.772;2.718;2022-07-22T15:44:42;101268.63;;;34.76;62.27
51460;BME280;37534;39.772;2.718;2022-07-22T15:47:08;101269.63;;;34.90;60.81
51460;BME280;37534;39.772;2.718;2022-07-22T15:49:33;101262.31;;;34.83;59.57
51460;BME280;37534;39.772;2.718;2022-07-22T15:51:59;101273.41;;;34.95;59.14
51460;BME280;37534;39.772;2.718;2022-07-22T15:54:25;101273.22;;;34.97;56.63
51460;BME280;37534;39.772;2.718;2022-07-22T15:56:50;101266.69;;;34.84;58.35
51460;BME280;37534;39.772;2.718;2022-07-22T15:59:16;101266.75;;;34.76;58.40
51460;BME280;37534;39.772;2.718;2022-07-22T16:01:57;101276.44;;;34.62;60.46
51460;BME280;37534;39.772;2.718;2022-07-22T16:04:23;101278.00;;;34.57;61.25
51460;BME280;37534;39.772;2.718;2022-07-22T16:06:48;101264.63;;;34.42;62.44
51460;BME280;37534;39.772;2.718;2022-07-22T16:09:14;101272.16;;;34.23;64.52
51460;BME280;37534;39.772;2.718;2022-07-22T16:11:40;101273.59;;;34.11;64.12
51460;BME280;37534;39.772;2.718;2022-07-22T16:14:05;101263.97;;;34.02;63.67
51460;BME280;37534;39.772;2.718;2022-07-22T16:16:31;101254.75;;;34.04;64.86
51460;BME280;37534;39.772;2.718;2022-07-22T16:18:57;101260.06;;;33.89;65.03
51460;BME280;37534;39.772;2.718;2022-07-22T16:21:23;101249.28;;;33.83;64.96
51460;BME280;37534;39.772;2.718;2022-07-22T16:23:48;101254.63;;;33.83;63.90
51460;BME280;37534;39.772;2.718;2022-07-22T16:26:14;101251.88;;;33.68;65.75
51460;BME280;37534;39.772;2.718;2022-07-22T16:28:39;101256.31;;;33.52;64.38
51460;BME280;37534;39.772;2.718;2022-07-22T16:31:15;101260.91;;;33.44;64.03
51460;BME280;37534;39.772;2.718;2022-07-22T16:33:40;101247.44;;;33.29;65.24
51460;BME280;37534;39.772;2.718;2022-07-22T16:36:07;101244.84;;;33.21;64.90
51460;BME280;37534;39.772;2.718;2022-07-22T16:38:32;101249.00;;;33.15;65.44
51460;BME280;37534;39.772;2.718;2022-07-22T16:40:58;101249.34;;;33.12;65.16
51460;BME280;37534;39.772;2.718;2022-07-22T16:43:24;101240.69;;;33.10;66.66
51460;BME280;37534;39.772;2.718;2022-07-22T16:45:51;101236.19;;;33.02;69.41
51460;BME280;37534;39.772;2.718;2022-07-22T16:48:16;101249.88;;;33.07;68.35
51460;BME280;37534;39.772;2.718;2022-07-22T16:50:42;101242.34;;;33.11;68.26
51460;BME280;37534;39.772;2.718;2022-07-22T16:53:07;101252.38;;;33.09;64.74
51460;BME280;37534;39.772;2.718;2022-07-22T16:55:33;101238.53;;;33.13;63.32
51460;BME280;37534;39.772;2.718;2022-07-22T16:57:58;101242.84;;;33.14;65.73
51460;BME280;37534;39.772;2.718;2022-07-22T17:00:24;101252.22;;;33.02;66.55
51460;BME280;37534;39.772;2.718;2022-07-22T17:02:50;101232.63;;;32.87;66.58
51460;BME280;37534;39.772;2.718;2022-07-22T17:05:15;101239.63;;;32.80;65.64
51460;BME280;37534;39.772;2.718;2022-07-22T17:07:41;101236.00;;;32.72;65.12
51460;BME280;37534;39.772;2.718;2022-07-22T17:10:07;101230.88;;;32.63;66.24
51460;BME280;37534;39.772;2.718;2022-07-22T17:12:33;101236.69;;;32.66;66.81
51460;BME280;37534;39.772;2.718;2022-07-22T17:14:59;101238.72;;;32.64;68.00
51460;BME280;37534;39.772;2.718;2022-07-22T17:17:25;101235.38;;;32.54;67.84
51460;BME280;37534;39.772;2.718;2022-07-22T17:19:50;101243.38;;;32.54;67.31
51460;BME280;37534;39.772;2.718;2022-07-22T17:22:16;101242.41;;;32.47;65.63
51460;BME280;37534;39.772;2.718;2022-07-22T17:24:41;101247.41;;;32.42;66.09
51460;BME280;37534;39.772;2.718;2022-07-22T17:27:07;101249.75;;;32.45;66.30
51460;BME280;37534;39.772;2.718;2022-07-22T17:29:32;101254.44;;;32.43;66.67
51460;BME280;37534;39.772;2.718;2022-07-22T17:31:58;101264.47;;;32.32;65.46
51460;BME280;37534;39.772;2.718;2022-07-22T17:34:23;101269.81;;;32.24;66.37
51460;BME280;37534;39.772;2.718;2022-07-22T17:36:49;101260.97;;;32.15;67.24
51460;BME280;37534;39.772;2.718;2022-07-22T17:39:15;101267.16;;;32.08;68.99
51460;BME280;37534;39.772;2.718;2022-07-22T17:41:41;101264.81;;;31.96;68.29
51460;BME280;37534;39.772;2.718;2022-07-22T17:44:06;101253.81;;;31.91;67.82
51460;BME280;37534;39.772;2.718;2022-07-22T17:46:32;101266.97;;;31.93;67.90
51460;BME280;37534;39.772;2.718;2022-07-22T17:48:57;101268.44;;;31.87;67.27
51460;BME280;37534;39.772;2.718;2022-07-22T17:51:23;101257.28;;;31.83;67.93
51460;BME280;37534;39.772;2.718;2022-07-22T17:53:49;101263.13;;;31.87;67.83
51460;BME280;37534;39.772;2.718;2022-07-22T17:56:14;101256.78;;;31.88;66.80
51460;BME280;37534;39.772;2.718;2022-07-22T17:58:40;101260.81;;;31.84;66.42
51460;BME280;37534;39.772;2.718;2022-07-22T18:01:05;101253.13;;;31.81;66.88
51460;BME280;37534;39.772;2.718;2022-07-22T18:03:31;101262.13;;;31.80;67.71
51460;BME280;37534;39.772;2.718;2022-07-22T18:05:57;101262.47;;;31.77;68.10
51460;BME280;37534;39.772;2.718;2022-07-22T18:08:24;101266.13;;;31.76;67.69
51460;BME280;37534;39.772;2.718;2022-07-22T18:10:50;101263.44;;;31.68;66.27
51460;BME280;37534;39.772;2.718;2022-07-22T18:13:16;101261.13;;;31.64;64.79
51460;BME280;37534;39.772;2.718;2022-07-22T18:15:42;101260.13;;;31.74;62.50
51460;BME280;37534;39.772;2.718;2022-07-22T18:18:08;101246.44;;;31.69;59.82
51460;BME280;37534;39.772;2.718;2022-07-22T18:20:34;101268.09;;;31.65;63.38
51460;BME280;37534;39.772;2.718;2022-07-22T18:22:59;101259.56;;;31.45;64.94
51460;BME280;37534;39.772;2.718;2022-07-22T18:25:25;101249.06;;;31.36;64.04
51460;BME280;37534;39.772;2.718;2022-07-22T18:27:52;101261.41;;;31.45;56.90
51460;BME280;37534;39.772;2.718;2022-07-22T18:30:17;101261.03;;;31.23;58.13
51460;BME280;37534;39.772;2.718;2022-07-22T18:32:43;101260.66;;;31.26;46.75
51460;BME280;37534;39.772;2.718;2022-07-22T18:35:09;101258.69;;;31.37;44.91
51460;BME280;37534;39.772;2.718;2022-07-22T18:37:34;101260.34;;;31.30;47.21
51460;BME280;37534;39.772;2.718;2022-07-22T18:40:00;101269.06;;;31.40;44.85
51460;BME280;37534;39.772;2.718;2022-07-22T18:42:26;101259.72;;;31.36;45.59
51460;BME280;37534;39.772;2.718;2022-07-22T18:44:51;101274.69;;;31.37;45.74
51460;BME280;37534;39.772;2.718;2022-07-22T18:47:17;101273.72;;;31.38;44.57
51460;BME280;37534;39.772;2.718;2022-07-22T18:49:43;101277.38;;;31.37;45.01
51460;BME280;37534;39.772;2.718;2022-07-22T18:52:09;101274.34;;;31.32;45.44
51460;BME280;37534;39.772;2.718;2022-07-22T18:54:35;101294.88;;;31.39;46.82
51460;BME280;37534;39.772;2.718;2022-07-22T18:57:00;101284.50;;;31.28;46.39
51460;BME280;37534;39.772;2.718;2022-07-22T18:59:26;101293.81;;;31.24;47.16
51460;BME280;37534;39.772;2.718;2022-07-22T19:01:52;101300.75;;;31.08;49.39
51460;BME280;37534;39.772;2.718;2022-07-22T19:04:18;101296.19;;;30.93;59.17
51460;BME280;37534;39.772;2.718;2022-07-22T19:06:44;101300.75;;;30.82;59.27
51460;BME280;37534;39.772;2.718;2022-07-22T19:09:09;101299.34;;;30.62;69.70
51460;BME280;37534;39.772;2.718;2022-07-22T19:11:35;101307.53;;;30.42;72.77
51460;BME280;37534;39.772;2.718;2022-07-22T19:14:00;101305.16;;;30.21;74.38
51460;BME280;37534;39.772;2.718;2022-07-22T19:16:26;101300.84;;;30.02;76.46
51460;BME280;37534;39.772;2.718;2022-07-22T19:18:51;101299.75;;;29.87;78.42
51460;BME280;37534;39.772;2.718;2022-07-22T19:21:17;101313.53;;;29.72;79.31
51460;BME280;37534;39.772;2.718;2022-07-22T19:23:42;101316.78;;;29.66;80.37
51460;BME280;37534;39.772;2.718;2022-07-22T19:26:10;101297.31;;;29.48;80.13
51460;BME280;37534;39.772;2.718;2022-07-22T19:28:36;101303.38;;;29.40;80.02
51460;BME280;37534;39.772;2.718;2022-07-22T19:31:02;101318.19;;;29.43;82.62
51460;BME280;37534;39.772;2.718;2022-07-22T19:33:27;101314.38;;;29.45;80.87
51460;BME280;37534;39.772;2.718;2022-07-22T19:35:53;101304.91;;;29.43;63.81
51460;BME280;37534;39.772;2.718;2022-07-22T19:38:18;101306.88;;;29.41;77.63
51460;BME280;37534;39.772;2.718;2022-07-22T19:40:44;101297.03;;;29.23;82.71
51460;BME280;37534;39.772;2.718;2022-07-22T19:43:09;101288.53;;;29.19;72.12
51460;BME280;37534;39.772;2.718;2022-07-22T19:45:35;101306.22;;;29.29;73.62
51460;BME280;37534;39.772;2.718;2022-07-22T19:48:00;101309.84;;;29.28;74.93
51460;BME280;37534;39.772;2.718;2022-07-22T19:50:26;101318.03;;;29.16;80.39
51460;BME280;37534;39.772;2.718;2022-07-22T19:52:52;101300.72;;;29.02;81.00
51460;BME280;37534;39.772;2.718;2022-07-22T19:55:17;101299.06;;;29.01;76.22
51460;BME280;37534;39.772;2.718;2022-07-22T19:57:43;101302.66;;;29.10;65.57
51460;BME280;37534;39.772;2.718;2022-07-22T20:00:09;101306.03;;;29.02;67.41
51460;BME280;37534;39.772;2.718;2022-07-22T20:02:35;101302.63;;;28.82;68.63
51460;BME280;37534;39.772;2.718;2022-07-22T20:05:01;101303.91;;;28.69;66.25
51460;BME280;37534;39.772;2.718;2022-07-22T20:07:26;101291.94;;;28.65;63.87
51460;BME280;37534;39.772;2.718;2022-07-22T20:09:52;101309.13;;;28.60;63.50
51460;BME280;37534;39.772;2.718;2022-07-22T20:12:18;101309.50;;;28.66;63.05
51460;BME280;37534;39.772;2.718;2022-07-22T20:14:43;101307.16;;;28.62;64.12
51460;BME280;37534;39.772;2.718;2022-07-22T20:17:10;101301.19;;;28.41;63.19
51460;BME280;37534;39.772;2.718;2022-07-22T20:19:35;101313.72;;;28.58;62.54
51460;BME280;37534;39.772;2.718;2022-07-22T20:22:06;101322.97;;;28.44;63.61
51460;BME280;37534;39.772;2.718;2022-07-22T20:24:34;101324.34;;;28.39;64.21
51460;BME280;37534;39.772;2.718;2022-07-22T20:27:00;101335.38;;;28.24;64.65
51460;BME280;37534;39.772;2.718;2022-07-22T20:29:26;101338.59;;;28.09;73.75
51460;BME280;37534;39.772;2.718;2022-07-22T20:31:51;101344.19;;;28.15;77.13
51460;BME280;37534;39.772;2.718;2022-07-22T20:34:18;101354.94;;;28.04;78.75
51460;BME280;37534;39.772;2.718;2022-07-22T20:36:45;101355.06;;;27.93;82.55
51460;BME280;37534;39.772;2.718;2022-07-22T20:39:11;101350.28;;;27.86;86.33
51460;BME280;37534;39.772;2.718;2022-07-22T20:41:36;101368.72;;;27.88;90.89
51460;BME280;37534;39.772;2.718;2022-07-22T20:44:02;101375.97;;;27.86;91.72
51460;BME280;37534;39.772;2.718;2022-07-22T20:46:28;101369.53;;;27.79;92.10
51460;BME280;37534;39.772;2.718;2022-07-22T20:48:53;101367.97;;;27.76;93.77
51460;BME280;37534;39.772;2.718;2022-07-22T20:51:19;101368.41;;;27.72;93.98
51460;BME280;37534;39.772;2.718;2022-07-22T20:53:44;101379.72;;;27.74;94.65
51460;BME280;37534;39.772;2.718;2022-07-22T20:56:10;101382.31;;;27.64;95.06
51460;BME280;37534;39.772;2.718;2022-07-22T20:58:35;101390.56;;;27.71;95.67
51460;BME280;37534;39.772;2.718;2022-07-22T21:01:01;101381.94;;;27.78;95.23
51460;BME280;37534;39.772;2.718;2022-07-22T21:03:26;101375.41;;;27.82;95.03
51460;BME280;37534;39.772;2.718;2022-07-22T21:05:52;101384.28;;;27.62;95.97
51460;BME280;37534;39.772;2.718;2022-07-22T21:08:17;101395.63;;;27.43;92.34
51460;BME280;37534;39.772;2.718;2022-07-22T21:10:43;101391.19;;;27.22;90.20
51460;BME280;37534;39.772;2.718;2022-07-22T21:13:09;101389.88;;;27.28;84.74
51460;BME280;37534;39.772;2.718;2022-07-22T21:15:35;101392.84;;;27.44;80.15
51460;BME280;37534;39.772;2.718;2022-07-22T21:18:02;101385.25;;;27.30;80.67
51460;BME280;37534;39.772;2.718;2022-07-22T21:20:28;101380.53;;;27.12;82.54
51460;BME280;37534;39.772;2.718;2022-07-22T21:22:53;101389.19;;;27.15;82.91
51460;BME280;37534;39.772;2.718;2022-07-22T21:25:19;101378.53;;;26.95;83.27
51460;BME280;37534;39.772;2.718;2022-07-22T21:27:45;101386.41;;;26.85;84.59
51460;BME280;37534;39.772;2.718;2022-07-22T21:30:11;101379.59;;;26.71;85.58
51460;BME280;37534;39.772;2.718;2022-07-22T21:32:37;101375.16;;;26.72;86.98
51460;BME280;37534;39.772;2.718;2022-07-22T21:35:05;101380.53;;;26.82;87.67
51460;BME280;37534;39.772;2.718;2022-07-22T21:37:31;101371.78;;;26.91;87.94
51460;BME280;37534;39.772;2.718;2022-07-22T21:39:58;101362.25;;;26.79;88.57
51460;BME280;37534;39.772;2.718;2022-07-22T21:42:24;101353.56;;;26.67;89.16
51460;BME280;37534;39.772;2.718;2022-07-22T21:44:50;101361.88;;;26.62;87.53
51460;BME280;37534;39.772;2.718;2022-07-22T21:47:15;101359.50;;;26.48;88.59
51460;BME280;37534;39.772;2.718;2022-07-22T21:49:41;101355.34;;;26.34;86.98
51460;BME280;37534;39.772;2.718;2022-07-22T21:52:07;101343.47;;;26.28;87.73
51460;BME280;37534;39.772;2.718;2022-07-22T21:54:32;101346.88;;;26.19;88.28
51460;BME280;37534;39.772;2.718;2022-07-22T21:56:58;101344.38;;;26.17;87.80
51460;BME280;37534;39.772;2.718;2022-07-22T21:59:27;101345.44;;;26.15;86.50
51460;BME280;37534;39.772;2.718;2022-07-22T22:01:54;101345.41;;;26.26;84.60
51460;BME280;37534;39.772;2.718;2022-07-22T22:04:20;101344.66;;;26.35;83.10
51460;BME280;37534;39.772;2.718;2022-07-22T22:06:47;101347.06;;;26.27;83.13
51460;BME280;37534;39.772;2.718;2022-07-22T22:09:14;101341.38;;;26.11;84.96
51460;BME280;37534;39.772;2.718;2022-07-22T22:11:40;101324.22;;;26.05;86.56
51460;BME280;37534;39.772;2.718;2022-07-22T22:14:06;101324.59;;;25.89;87.84
51460;BME280;37534;39.772;2.718;2022-07-22T22:16:32;101333.16;;;25.82;88.75
51460;BME280;37534;39.772;2.718;2022-07-22T22:18:58;101334.75;;;25.73;85.87
51460;BME280;37534;39.772;2.718;2022-07-22T22:21:23;101317.00;;;25.64;81.81
51460;BME280;37534;39.772;2.718;2022-07-22T22:23:49;101324.34;;;25.92;76.30
51460;BME280;37534;39.772;2.718;2022-07-22T22:26:15;101313.06;;;25.90;76.68
51460;BME280;37534;39.772;2.718;2022-07-22T22:28:40;101323.66;;;25.90;76.86
51460;BME280;37534;39.772;2.718;2022-07-22T22:31:06;101326.09;;;25.71;74.56
51460;BME280;37534;39.772;2.718;2022-07-22T22:33:32;101325.28;;;25.59;74.95
51460;BME280;37534;39.772;2.718;2022-07-22T22:35:57;101310.28;;;25.48;75.88
51460;BME280;37534;39.772;2.718;2022-07-22T22:38:23;101308.97;;;25.42;74.55
51460;BME280;37534;39.772;2.718;2022-07-22T22:40:48;101321.09;;;25.45;74.76
51460;BME280;37534;39.772;2.718;2022-07-22T22:43:14;101326.00;;;25.38;76.01
51460;BME280;37534;39.772;2.718;2022-07-22T22:45:39;101305.22;;;25.22;76.04
51460;BME280;37534;39.772;2.718;2022-07-22T22:48:05;101311.00;;;25.28;74.04
51460;BME280;37534;39.772;2.718;2022-07-22T22:50:31;101315.56;;;25.26;68.91
51460;BME280;37534;39.772;2.718;2022-07-22T22:52:57;101322.06;;;25.33;69.04
51460;BME280;37534;39.772;2.718;2022-07-22T22:55:22;101320.84;;;25.26;66.07
51460;BME280;37534;39.772;2.718;2022-07-22T22:57:48;101328.31;;;25.32;70.16
51460;BME280;37534;39.772;2.718;2022-07-22T23:00:13;101324.94;;;25.30;75.31
51460;BME280;37534;39.772;2.718;2022-07-22T23:02:40;101333.34;;;25.35;81.71
51460;BME280;37534;39.772;2.718;2022-07-22T23:05:06;101332.63;;;25.33;89.15
51460;BME280;37534;39.772;2.718;2022-07-22T23:07:32;101342.22;;;25.34;91.57
51460;BME280;37534;39.772;2.718;2022-07-22T23:09:58;101346.06;;;25.52;90.03
51460;BME280;37534;39.772;2.718;2022-07-22T23:12:23;101332.84;;;25.30;90.61
51460;BME280;37534;39.772;2.718;2022-07-22T23:14:49;101348.44;;;25.21;91.64
51460;BME280;37534;39.772;2.718;2022-07-22T23:17:14;101356.16;;;25.25;91.05
51460;BME280;37534;39.772;2.718;2022-07-22T23:19:40;101343.69;;;25.27;90.36
51460;BME280;37534;39.772;2.718;2022-07-22T23:22:08;101363.34;;;25.45;86.79
51460;BME280;37534;39.772;2.718;2022-07-22T23:24:34;101372.00;;;25.47;91.91
51460;BME280;37534;39.772;2.718;2022-07-22T23:26:59;101378.84;;;25.50;96.33
51460;BME280;37534;39.772;2.718;2022-07-22T23:29:25;101382.56;;;25.58;96.45
51460;BME280;37534;39.772;2.718;2022-07-22T23:31:50;101392.38;;;25.79;98.05
51460;BME280;37534;39.772;2.718;2022-07-22T23:34:16;101402.72;;;26.05;97.66
51460;BME280;37534;39.772;2.718;2022-07-22T23:36:41;101397.16;;;26.08;97.84
51460;BME280;37534;39.772;2.718;2022-07-22T23:39:07;101400.06;;;25.93;96.28
51460;BME280;37534;39.772;2.718;2022-07-22T23:41:32;101404.66;;;25.80;92.57
51460;BME280;37534;39.772;2.718;2022-07-22T23:43:58;101406.44;;;25.68;89.79
51460;BME280;37534;39.772;2.718;2022-07-22T23:46:24;101420.13;;;25.73;85.35
51460;BME280;37534;39.772;2.718;2022-07-22T23:48:49;101426.38;;;25.72;84.52
51460;BME280;37534;39.772;2.718;2022-07-22T23:51:15;101417.72;;;25.70;84.88
51460;BME280;37534;39.772;2.718;2022-07-22T23:53:40;101425.69;;;25.59;84.82
51460;BME280;37534;39.772;2.718;2022-07-22T23:56:06;101419.53;;;25.47;83.30
51460;BME280;37534;39.772;2.718;2022-07-22T23:58:31;101421.47;;;25.45;83.70
